sensor_id;sensor_type;location;lat;lon;timestamp;P1;durP1;ratioP1;P2;durP2;ratioP2
6497;SDS011;3282;48.358;10.958;2022-12-11T00:01:27;33.47;;;17.95;;
6497;SDS011;3282;48.358;10.958;2022-12-11T00:03:53;36.38;;;19.20;;
6497;SDS011;3282;48.358;10.958;2022-12-11T00:06:20;34.88;;;17.67;;
6497;SDS011;3282;48.358;10.958;2022-12-11T00:08:52;32.83;;;17.38;;
6497;SDS011;3282;48.358;10.958;2022-12-11T00:11:20;33.30;;;17.40;;
6497;SDS011;3282;48.358;10.958;2022-12-11T00:13:48;36.03;;;18.17;;
6497;SDS011;3282;48.358;10.958;2022-12-11T00:16:15;31.17;;;17.27;;
6497;SDS011;3282;48.358;10.958;2022-12-11T00:18:41;31.52;;;15.85;;
6497;SDS011;3282;48.358;10.958;2022-12-11T00:21:10;31.80;;;16.08;;
6497;SDS011;3282;48.358;10.958;2022-12-11T00:23:39;33.72;;;17.95;;
6497;SDS011;3282;48.358;10.958;2022-12-11T00:26:07;34.67;;;18.25;;
6497;SDS011;3282;48.358;10.958;2022-12-11T00:28:35;33.13;;;17.40;;
6497;SDS011;3282;48.358;10.958;2022-12-11T00:31:05;31.88;;;17.48;;
6497;SDS011;3282;48.358;10.958;2022-12-11T00:33:34;33.63;;;18.33;;
6497;SDS011;3282;48.358;10.958;2022-12-11T00:36:01;33.28;;;16.08;;
6497;SDS011;3282;48.358;10.958;2022-12-11T00:38:27;31.63;;;16.60;;
6497;SDS011;3282;48.358;10.958;2022-12-11T00:41:00;33.50;;;16.98;;
6497;SDS011;3282;48.358;10.958;2022-12-11T00:43:26;34.07;;;18.10;;
6497;SDS011;3282;48.358;10.958;2022-12-11T00:45:53;34.20;;;17.30;;
6497;SDS011;3282;48.358;10.958;2022-12-11T00:48:19;35.05;;;18.05;;
6497;SDS011;3282;48.358;10.958;2022-12-11T00:50:46;35.28;;;18.88;;
6497;SDS011;3282;48.358;10.958;2022-12-11T00:53:13;33.67;;;17.48;;
6497;SDS011;3282;48.358;10.958;2022-12-11T00:55:40;36.83;;;19.00;;
6497;SDS011;3282;48.358;10.958;2022-12-11T00:58:08;35.67;;;19.02;;
6497;SDS011;3282;48.358;10.958;2022-12-11T01:00:36;35.35;;;18.38;;
6497;SDS011;3282;48.358;10.958;2022-12-11T01:03:03;34.22;;;19.10;;
6497;SDS011;3282;48.358;10.958;2022-12-11T01:05:31;34.10;;;18.70;;
6497;SDS011;3282;48.358;10.958;2022-12-11T01:08:00;36.97;;;19.77;;
6497;SDS011;3282;48.358;10.958;2022-12-11T01:10:27;36.92;;;18.55;;
6497;SDS011;3282;48.358;10.958;2022-12-11T01:15:26;33.65;;;17.60;;
6497;SDS011;3282;48.358;10.958;2022-12-11T01:17:55;33.40;;;17.30;;
6497;SDS011;3282;48.358;10.958;2022-12-11T01:20:22;31.42;;;16.75;;
6497;SDS011;3282;48.358;10.958;2022-12-11T01:22:53;37.83;;;19.50;;
6497;SDS011;3282;48.358;10.958;2022-12-11T01:25:21;34.90;;;18.92;;
6497;SDS011;3282;48.358;10.958;2022-12-11T01:27:49;36.03;;;18.42;;
6497;SDS011;3282;48.358;10.958;2022-12-11T01:30:17;33.10;;;18.02;;
6497;SDS011;3282;48.358;10.958;2022-12-11T01:32:45;34.63;;;17.95;;
6497;SDS011;3282;48.358;10.958;2022-12-11T01:35:12;33.90;;;17.45;;
6497;SDS011;3282;48.358;10.958;2022-12-11T01:37:39;33.63;;;17.70;;
6497;SDS011;3282;48.358;10.958;2022-12-11T01:40:06;34.47;;;19.27;;
6497;SDS011;3282;48.358;10.958;2022-12-11T01:42:34;37.20;;;19.33;;
6497;SDS011;3282;48.358;10.958;2022-12-11T01:45:47;33.72;;;18.52;;
6497;SDS011;3282;48.358;10.958;2022-12-11T01:48:03;35.95;;;20.65;;
6497;SDS011;3282;48.358;10.958;2022-12-11T01:50:34;36.38;;;21.33;;
6497;SDS011;3282;48.358;10.958;2022-12-11T01:53:05;37.92;;;20.63;;
6497;SDS011;3282;48.358;10.958;2022-12-11T01:55:34;36.75;;;20.50;;
6497;SDS011;3282;48.358;10.958;2022-12-11T01:58:02;34.72;;;20.13;;
6497;SDS011;3282;48.358;10.958;2022-12-11T02:00:30;34.45;;;19.63;;
6497;SDS011;3282;48.358;10.958;2022-12-11T02:02:57;35.60;;;20.40;;
6497;SDS011;3282;48.358;10.958;2022-12-11T02:05:23;32.88;;;19.58;;
6497;SDS011;3282;48.358;10.958;2022-12-11T02:07:53;34.90;;;19.80;;
6497;SDS011;3282;48.358;10.958;2022-12-11T02:10:25;32.10;;;15.55;;
6497;SDS011;3282;48.358;10.958;2022-12-11T02:13:03;37.55;;;20.35;;
6497;SDS011;3282;48.358;10.958;2022-12-11T02:16:06;35.60;;;20.10;;
6497;SDS011;3282;48.358;10.958;2022-12-11T02:18:47;32.55;;;19.00;;
6497;SDS011;3282;48.358;10.958;2022-12-11T02:21:23;32.88;;;17.95;;
6497;SDS011;3282;48.358;10.958;2022-12-11T02:26:35;34.63;;;17.88;;
6497;SDS011;3282;48.358;10.958;2022-12-11T02:29:17;34.65;;;18.35;;
6497;SDS011;3282;48.358;10.958;2022-12-11T02:34:36;33.75;;;17.42;;
6497;SDS011;3282;48.358;10.958;2022-12-11T02:37:17;37.85;;;21.00;;
6497;SDS011;3282;48.358;10.958;2022-12-11T02:39:46;37.97;;;21.50;;
6497;SDS011;3282;48.358;10.958;2022-12-11T02:42:14;40.35;;;19.95;;
6497;SDS011;3282;48.358;10.958;2022-12-11T02:44:41;41.28;;;20.33;;
6497;SDS011;3282;48.358;10.958;2022-12-11T02:47:10;37.45;;;20.38;;
6497;SDS011;3282;48.358;10.958;2022-12-11T02:49:39;35.65;;;18.77;;
6497;SDS011;3282;48.358;10.958;2022-12-11T02:52:08;36.92;;;19.10;;
6497;SDS011;3282;48.358;10.958;2022-12-11T02:54:37;36.30;;;19.52;;
6497;SDS011;3282;48.358;10.958;2022-12-11T02:57:07;35.08;;;19.42;;
6497;SDS011;3282;48.358;10.958;2022-12-11T02:59:43;38.35;;;18.67;;
6497;SDS011;3282;48.358;10.958;2022-12-11T03:02:11;36.70;;;18.38;;
6497;SDS011;3282;48.358;10.958;2022-12-11T03:04:39;38.75;;;19.67;;
6497;SDS011;3282;48.358;10.958;2022-12-11T03:07:08;34.58;;;17.90;;
6497;SDS011;3282;48.358;10.958;2022-12-11T03:09:38;35.72;;;18.83;;
6497;SDS011;3282;48.358;10.958;2022-12-11T03:12:06;36.90;;;20.17;;
6497;SDS011;3282;48.358;10.958;2022-12-11T03:14:36;37.65;;;21.98;;
6497;SDS011;3282;48.358;10.958;2022-12-11T03:19:54;37.45;;;20.40;;
6497;SDS011;3282;48.358;10.958;2022-12-11T03:22:33;40.03;;;21.38;;
6497;SDS011;3282;48.358;10.958;2022-12-11T03:25:25;40.38;;;22.08;;
6497;SDS011;3282;48.358;10.958;2022-12-11T03:27:57;34.92;;;20.40;;
6497;SDS011;3282;48.358;10.958;2022-12-11T03:30:28;33.28;;;17.75;;
6497;SDS011;3282;48.358;10.958;2022-12-11T03:33:01;36.10;;;19.77;;
6497;SDS011;3282;48.358;10.958;2022-12-11T03:35:38;38.05;;;21.20;;
6497;SDS011;3282;48.358;10.958;2022-12-11T03:38:09;34.33;;;17.98;;
6497;SDS011;3282;48.358;10.958;2022-12-11T03:40:39;35.20;;;19.80;;
6497;SDS011;3282;48.358;10.958;2022-12-11T03:43:08;34.38;;;17.67;;
6497;SDS011;3282;48.358;10.958;2022-12-11T03:45:36;34.33;;;17.58;;
6497;SDS011;3282;48.358;10.958;2022-12-11T03:48:05;32.50;;;17.63;;
6497;SDS011;3282;48.358;10.958;2022-12-11T03:50:34;34.28;;;17.67;;
6497;SDS011;3282;48.358;10.958;2022-12-11T03:53:02;32.20;;;16.73;;
6497;SDS011;3282;48.358;10.958;2022-12-11T03:55:30;30.73;;;16.73;;
6497;SDS011;3282;48.358;10.958;2022-12-11T03:57:58;33.35;;;17.30;;
6497;SDS011;3282;48.358;10.958;2022-12-11T04:00:24;32.25;;;16.42;;
6497;SDS011;3282;48.358;10.958;2022-12-11T04:02:51;29.58;;;17.33;;
6497;SDS011;3282;48.358;10.958;2022-12-11T04:05:39;32.78;;;16.90;;
6497;SDS011;3282;48.358;10.958;2022-12-11T04:08:09;31.20;;;15.88;;
6497;SDS011;3282;48.358;10.958;2022-12-11T04:10:36;29.70;;;15.20;;
6497;SDS011;3282;48.358;10.958;2022-12-11T04:13:03;28.92;;;16.20;;
6497;SDS011;3282;48.358;10.958;2022-12-11T04:15:29;30.00;;;16.13;;
6497;SDS011;3282;48.358;10.958;2022-12-11T04:17:56;30.55;;;16.27;;
6497;SDS011;3282;48.358;10.958;2022-12-11T04:20:41;28.70;;;16.17;;
6497;SDS011;3282;48.358;10.958;2022-12-11T04:23:27;29.70;;;16.88;;
6497;SDS011;3282;48.358;10.958;2022-12-11T04:26:16;28.70;;;15.93;;
6497;SDS011;3282;48.358;10.958;2022-12-11T04:28:45;29.90;;;15.30;;
6497;SDS011;3282;48.358;10.958;2022-12-11T04:31:16;30.38;;;16.17;;
6497;SDS011;3282;48.358;10.958;2022-12-11T04:33:45;28.23;;;15.45;;
6497;SDS011;3282;48.358;10.958;2022-12-11T04:36:12;29.90;;;15.45;;
6497;SDS011;3282;48.358;10.958;2022-12-11T04:38:40;26.83;;;14.95;;
6497;SDS011;3282;48.358;10.958;2022-12-11T04:41:07;28.67;;;15.98;;
6497;SDS011;3282;48.358;10.958;2022-12-11T04:43:35;25.63;;;13.82;;
6497;SDS011;3282;48.358;10.958;2022-12-11T04:46:10;27.80;;;14.88;;
6497;SDS011;3282;48.358;10.958;2022-12-11T04:48:39;26.17;;;13.90;;
6497;SDS011;3282;48.358;10.958;2022-12-11T04:51:06;27.83;;;14.68;;
6497;SDS011;3282;48.358;10.958;2022-12-11T04:53:33;28.63;;;14.88;;
6497;SDS011;3282;48.358;10.958;2022-12-11T04:56:00;25.67;;;14.25;;
6497;SDS011;3282;48.358;10.958;2022-12-11T04:58:30;26.23;;;14.40;;
6497;SDS011;3282;48.358;10.958;2022-12-11T05:00:57;29.52;;;15.50;;
6497;SDS011;3282;48.358;10.958;2022-12-11T05:03:23;27.67;;;14.70;;
6497;SDS011;3282;48.358;10.958;2022-12-11T05:05:50;32.50;;;16.50;;
6497;SDS011;3282;48.358;10.958;2022-12-11T05:08:18;30.95;;;17.30;;
6497;SDS011;3282;48.358;10.958;2022-12-11T05:10:58;29.05;;;16.88;;
6497;SDS011;3282;48.358;10.958;2022-12-11T05:13:27;28.92;;;15.77;;
6497;SDS011;3282;48.358;10.958;2022-12-11T05:15:55;29.13;;;15.57;;
6497;SDS011;3282;48.358;10.958;2022-12-11T05:18:22;28.00;;;15.40;;
6497;SDS011;3282;48.358;10.958;2022-12-11T05:20:56;30.08;;;17.05;;
6497;SDS011;3282;48.358;10.958;2022-12-11T05:23:24;31.58;;;17.13;;
6497;SDS011;3282;48.358;10.958;2022-12-11T05:25:54;31.20;;;17.25;;
6497;SDS011;3282;48.358;10.958;2022-12-11T05:28:22;32.05;;;18.45;;
6497;SDS011;3282;48.358;10.958;2022-12-11T05:30:57;29.63;;;15.93;;
6497;SDS011;3282;48.358;10.958;2022-12-11T05:33:25;31.15;;;16.95;;
6497;SDS011;3282;48.358;10.958;2022-12-11T05:35:51;32.00;;;18.15;;
6497;SDS011;3282;48.358;10.958;2022-12-11T05:38:18;31.65;;;16.98;;
6497;SDS011;3282;48.358;10.958;2022-12-11T05:40:54;32.90;;;17.00;;
6497;SDS011;3282;48.358;10.958;2022-12-11T05:43:31;33.00;;;17.20;;
6497;SDS011;3282;48.358;10.958;2022-12-11T05:46:10;34.33;;;17.70;;
6497;SDS011;3282;48.358;10.958;2022-12-11T05:48:39;33.03;;;17.40;;
6497;SDS011;3282;48.358;10.958;2022-12-11T05:51:07;35.03;;;17.92;;
6497;SDS011;3282;48.358;10.958;2022-12-11T05:53:34;34.92;;;18.35;;
6497;SDS011;3282;48.358;10.958;2022-12-11T05:56:02;32.97;;;17.33;;
6497;SDS011;3282;48.358;10.958;2022-12-11T05:58:31;36.58;;;20.25;;
6497;SDS011;3282;48.358;10.958;2022-12-11T06:00:58;34.65;;;19.63;;
6497;SDS011;3282;48.358;10.958;2022-12-11T06:03:25;36.10;;;20.77;;
6497;SDS011;3282;48.358;10.958;2022-12-11T06:05:52;34.58;;;18.42;;
6497;SDS011;3282;48.358;10.958;2022-12-11T06:08:19;33.92;;;20.13;;
6497;SDS011;3282;48.358;10.958;2022-12-11T06:10:46;34.55;;;19.13;;
6497;SDS011;3282;48.358;10.958;2022-12-11T06:13:14;34.90;;;18.63;;
6497;SDS011;3282;48.358;10.958;2022-12-11T06:15:41;32.58;;;17.65;;
6497;SDS011;3282;48.358;10.958;2022-12-11T06:18:08;34.25;;;19.33;;
6497;SDS011;3282;48.358;10.958;2022-12-11T06:20:35;34.78;;;19.95;;
6497;SDS011;3282;48.358;10.958;2022-12-11T06:23:01;34.10;;;19.02;;
6497;SDS011;3282;48.358;10.958;2022-12-11T06:25:28;34.53;;;19.98;;
6497;SDS011;3282;48.358;10.958;2022-12-11T06:27:56;35.30;;;18.90;;
6497;SDS011;3282;48.358;10.958;2022-12-11T06:30:23;35.70;;;20.45;;
6497;SDS011;3282;48.358;10.958;2022-12-11T06:33:04;34.40;;;19.42;;
6497;SDS011;3282;48.358;10.958;2022-12-11T06:35:31;33.33;;;18.30;;
6497;SDS011;3282;48.358;10.958;2022-12-11T06:38:06;35.83;;;19.40;;
6497;SDS011;3282;48.358;10.958;2022-12-11T06:40:33;33.55;;;17.73;;
6497;SDS011;3282;48.358;10.958;2022-12-11T06:42:59;36.83;;;18.27;;
6497;SDS011;3282;48.358;10.958;2022-12-11T06:45:26;33.42;;;18.23;;
6497;SDS011;3282;48.358;10.958;2022-12-11T06:47:53;36.92;;;21.33;;
6497;SDS011;3282;48.358;10.958;2022-12-11T06:50:19;37.90;;;18.88;;
6497;SDS011;3282;48.358;10.958;2022-12-11T06:52:46;36.10;;;18.52;;
6497;SDS011;3282;48.358;10.958;2022-12-11T06:55:12;36.88;;;19.27;;
6497;SDS011;3282;48.358;10.958;2022-12-11T06:57:39;36.67;;;18.65;;
6497;SDS011;3282;48.358;10.958;2022-12-11T07:00:06;38.42;;;20.02;;
6497;SDS011;3282;48.358;10.958;2022-12-11T07:02:33;36.65;;;19.27;;
6497;SDS011;3282;48.358;10.958;2022-12-11T07:05:00;39.00;;;19.88;;
6497;SDS011;3282;48.358;10.958;2022-12-11T07:07:27;37.65;;;19.85;;
6497;SDS011;3282;48.358;10.958;2022-12-11T07:09:53;39.92;;;22.70;;
6497;SDS011;3282;48.358;10.958;2022-12-11T07:12:20;38.17;;;19.05;;
6497;SDS011;3282;48.358;10.958;2022-12-11T07:14:47;38.25;;;21.48;;
6497;SDS011;3282;48.358;10.958;2022-12-11T07:17:13;41.58;;;20.15;;
6497;SDS011;3282;48.358;10.958;2022-12-11T07:19:40;40.72;;;21.88;;
6497;SDS011;3282;48.358;10.958;2022-12-11T07:22:06;42.90;;;24.48;;
6497;SDS011;3282;48.358;10.958;2022-12-11T07:24:33;37.90;;;19.02;;
6497;SDS011;3282;48.358;10.958;2022-12-11T07:27:00;36.92;;;19.23;;
6497;SDS011;3282;48.358;10.958;2022-12-11T07:29:26;37.15;;;19.50;;
6497;SDS011;3282;48.358;10.958;2022-12-11T07:31:53;45.20;;;22.67;;
6497;SDS011;3282;48.358;10.958;2022-12-11T07:34:23;42.25;;;20.77;;
6497;SDS011;3282;48.358;10.958;2022-12-11T07:36:49;39.38;;;21.20;;
6497;SDS011;3282;48.358;10.958;2022-12-11T07:39:16;39.72;;;19.92;;
6497;SDS011;3282;48.358;10.958;2022-12-11T07:41:43;37.58;;;20.08;;
6497;SDS011;3282;48.358;10.958;2022-12-11T07:44:09;39.00;;;19.95;;
6497;SDS011;3282;48.358;10.958;2022-12-11T07:46:36;38.28;;;19.98;;
6497;SDS011;3282;48.358;10.958;2022-12-11T07:49:03;38.00;;;21.58;;
6497;SDS011;3282;48.358;10.958;2022-12-11T07:51:32;40.88;;;23.95;;
6497;SDS011;3282;48.358;10.958;2022-12-11T07:54:01;36.83;;;18.92;;
6497;SDS011;3282;48.358;10.958;2022-12-11T07:56:33;35.70;;;17.92;;
6497;SDS011;3282;48.358;10.958;2022-12-11T07:59:01;38.95;;;21.00;;
6497;SDS011;3282;48.358;10.958;2022-12-11T08:01:29;37.78;;;20.83;;
6497;SDS011;3282;48.358;10.958;2022-12-11T08:03:57;37.28;;;18.60;;
6497;SDS011;3282;48.358;10.958;2022-12-11T08:06:32;37.05;;;19.25;;
6497;SDS011;3282;48.358;10.958;2022-12-11T08:09:00;36.50;;;19.30;;
6497;SDS011;3282;48.358;10.958;2022-12-11T08:11:28;34.55;;;18.13;;
6497;SDS011;3282;48.358;10.958;2022-12-11T08:13:55;36.08;;;19.40;;
6497;SDS011;3282;48.358;10.958;2022-12-11T08:16:21;33.40;;;17.67;;
6497;SDS011;3282;48.358;10.958;2022-12-11T08:18:48;34.20;;;17.98;;
6497;SDS011;3282;48.358;10.958;2022-12-11T08:21:22;39.55;;;20.33;;
6497;SDS011;3282;48.358;10.958;2022-12-11T08:23:51;38.40;;;19.13;;
6497;SDS011;3282;48.358;10.958;2022-12-11T08:26:20;36.22;;;17.55;;
6497;SDS011;3282;48.358;10.958;2022-12-11T08:28:54;35.70;;;20.88;;
6497;SDS011;3282;48.358;10.958;2022-12-11T08:31:21;35.42;;;18.27;;
6497;SDS011;3282;48.358;10.958;2022-12-11T08:33:49;32.88;;;18.17;;
6497;SDS011;3282;48.358;10.958;2022-12-11T08:36:18;36.00;;;18.27;;
6497;SDS011;3282;48.358;10.958;2022-12-11T08:38:47;40.20;;;20.33;;
6497;SDS011;3282;48.358;10.958;2022-12-11T08:41:16;41.92;;;25.27;;
6497;SDS011;3282;48.358;10.958;2022-12-11T08:43:47;42.97;;;23.15;;
6497;SDS011;3282;48.358;10.958;2022-12-11T08:46:14;50.85;;;26.20;;
6497;SDS011;3282;48.358;10.958;2022-12-11T08:48:41;37.00;;;21.23;;
6497;SDS011;3282;48.358;10.958;2022-12-11T08:51:10;37.35;;;21.40;;
6497;SDS011;3282;48.358;10.958;2022-12-11T08:53:38;41.75;;;25.20;;
6497;SDS011;3282;48.358;10.958;2022-12-11T08:56:06;36.70;;;20.45;;
6497;SDS011;3282;48.358;10.958;2022-12-11T08:58:34;40.10;;;22.08;;
6497;SDS011;3282;48.358;10.958;2022-12-11T09:01:11;36.58;;;21.80;;
6497;SDS011;3282;48.358;10.958;2022-12-11T09:03:40;34.95;;;21.23;;
6497;SDS011;3282;48.358;10.958;2022-12-11T09:06:10;36.92;;;21.67;;
6497;SDS011;3282;48.358;10.958;2022-12-11T09:08:39;32.83;;;18.42;;
6497;SDS011;3282;48.358;10.958;2022-12-11T09:11:14;39.38;;;20.85;;
6497;SDS011;3282;48.358;10.958;2022-12-11T09:13:43;36.20;;;19.67;;
6497;SDS011;3282;48.358;10.958;2022-12-11T09:16:11;38.58;;;21.90;;
6497;SDS011;3282;48.358;10.958;2022-12-11T09:18:40;34.45;;;17.33;;
6497;SDS011;3282;48.358;10.958;2022-12-11T09:21:08;34.10;;;18.75;;
6497;SDS011;3282;48.358;10.958;2022-12-11T09:23:39;35.45;;;19.60;;
6497;SDS011;3282;48.358;10.958;2022-12-11T09:26:07;38.97;;;22.73;;
6497;SDS011;3282;48.358;10.958;2022-12-11T09:28:36;29.90;;;15.68;;
6497;SDS011;3282;48.358;10.958;2022-12-11T09:31:12;32.60;;;19.10;;
6497;SDS011;3282;48.358;10.958;2022-12-11T09:33:41;31.35;;;18.60;;
6497;SDS011;3282;48.358;10.958;2022-12-11T09:36:08;31.35;;;16.25;;
6497;SDS011;3282;48.358;10.958;2022-12-11T09:38:35;28.02;;;15.73;;
6497;SDS011;3282;48.358;10.958;2022-12-11T09:41:36;31.92;;;17.42;;
6497;SDS011;3282;48.358;10.958;2022-12-11T09:46:41;32.33;;;17.92;;
6497;SDS011;3282;48.358;10.958;2022-12-11T09:54:27;25.95;;;15.15;;
6497;SDS011;3282;48.358;10.958;2022-12-11T09:57:12;30.35;;;16.38;;
6497;SDS011;3282;48.358;10.958;2022-12-11T09:59:58;26.40;;;15.77;;
6497;SDS011;3282;48.358;10.958;2022-12-11T10:02:42;24.75;;;13.88;;
6497;SDS011;3282;48.358;10.958;2022-12-11T10:05:16;28.02;;;17.05;;
6497;SDS011;3282;48.358;10.958;2022-12-11T10:07:55;28.80;;;16.52;;
6497;SDS011;3282;48.358;10.958;2022-12-11T10:16:33;28.42;;;16.88;;
6497;SDS011;3282;48.358;10.958;2022-12-11T10:19:04;25.27;;;16.25;;
6497;SDS011;3282;48.358;10.958;2022-12-11T10:21:37;24.05;;;13.98;;
6497;SDS011;3282;48.358;10.958;2022-12-11T10:24:10;25.23;;;14.32;;
6497;SDS011;3282;48.358;10.958;2022-12-11T10:27:16;24.55;;;14.52;;
6497;SDS011;3282;48.358;10.958;2022-12-11T10:29:45;26.05;;;15.15;;
6497;SDS011;3282;48.358;10.958;2022-12-11T10:32:29;25.67;;;14.85;;
6497;SDS011;3282;48.358;10.958;2022-12-11T10:35:08;25.38;;;14.82;;
6497;SDS011;3282;48.358;10.958;2022-12-11T10:37:43;26.23;;;15.25;;
6497;SDS011;3282;48.358;10.958;2022-12-11T10:40:11;25.42;;;14.80;;
6497;SDS011;3282;48.358;10.958;2022-12-11T10:42:38;25.13;;;14.93;;
6497;SDS011;3282;48.358;10.958;2022-12-11T10:45:14;23.73;;;15.07;;
6497;SDS011;3282;48.358;10.958;2022-12-11T10:47:41;23.65;;;15.10;;
6497;SDS011;3282;48.358;10.958;2022-12-11T10:50:20;21.63;;;13.45;;
6497;SDS011;3282;48.358;10.958;2022-12-11T10:52:49;23.15;;;12.23;;
6497;SDS011;3282;48.358;10.958;2022-12-11T10:58:03;18.65;;;11.23;;
6497;SDS011;3282;48.358;10.958;2022-12-11T11:00:32;17.33;;;10.30;;
6497;SDS011;3282;48.358;10.958;2022-12-11T11:03:03;17.35;;;10.48;;
6497;SDS011;3282;48.358;10.958;2022-12-11T11:05:32;16.75;;;9.65;;
6497;SDS011;3282;48.358;10.958;2022-12-11T11:08:02;18.75;;;11.00;;
6497;SDS011;3282;48.358;10.958;2022-12-11T11:10:29;16.50;;;10.00;;
6497;SDS011;3282;48.358;10.958;2022-12-11T11:13:00;16.45;;;9.35;;
6497;SDS011;3282;48.358;10.958;2022-12-11T11:15:28;17.02;;;10.00;;
6497;SDS011;3282;48.358;10.958;2022-12-11T11:17:56;17.42;;;10.15;;
6497;SDS011;3282;48.358;10.958;2022-12-11T11:20:29;17.70;;;10.32;;
6497;SDS011;3282;48.358;10.958;2022-12-11T11:22:59;15.98;;;9.55;;
6497;SDS011;3282;48.358;10.958;2022-12-11T11:25:29;17.40;;;11.02;;
6497;SDS011;3282;48.358;10.958;2022-12-11T11:30:38;14.77;;;9.60;;
6497;SDS011;3282;48.358;10.958;2022-12-11T11:33:14;19.17;;;11.10;;
6497;SDS011;3282;48.358;10.958;2022-12-11T11:38:46;21.70;;;12.15;;
6497;SDS011;3282;48.358;10.958;2022-12-11T11:41:28;20.50;;;12.73;;
6497;SDS011;3282;48.358;10.958;2022-12-11T11:44:17;17.85;;;10.57;;
6497;SDS011;3282;48.358;10.958;2022-12-11T11:46:52;17.90;;;10.45;;
6497;SDS011;3282;48.358;10.958;2022-12-11T12:00:44;20.73;;;12.52;;
6497;SDS011;3282;48.358;10.958;2022-12-11T12:03:12;24.55;;;14.32;;
6497;SDS011;3282;48.358;10.958;2022-12-11T12:10:55;21.38;;;12.57;;
6497;SDS011;3282;48.358;10.958;2022-12-11T12:13:39;23.63;;;11.82;;
6497;SDS011;3282;48.358;10.958;2022-12-11T12:16:26;20.85;;;12.95;;
6497;SDS011;3282;48.358;10.958;2022-12-11T12:22:07;25.05;;;13.85;;
6497;SDS011;3282;48.358;10.958;2022-12-11T12:24:54;20.20;;;12.27;;
6497;SDS011;3282;48.358;10.958;2022-12-11T12:27:30;19.88;;;11.85;;
6497;SDS011;3282;48.358;10.958;2022-12-11T12:30:18;21.83;;;13.02;;
6497;SDS011;3282;48.358;10.958;2022-12-11T12:35:33;20.92;;;12.30;;
6497;SDS011;3282;48.358;10.958;2022-12-11T12:38:07;19.63;;;11.38;;
6497;SDS011;3282;48.358;10.958;2022-12-11T12:40:58;24.17;;;12.68;;
6497;SDS011;3282;48.358;10.958;2022-12-11T12:44:19;20.35;;;12.50;;
6497;SDS011;3282;48.358;10.958;2022-12-11T12:46:42;19.65;;;10.80;;
6497;SDS011;3282;48.358;10.958;2022-12-11T12:52:28;20.57;;;11.90;;
6497;SDS011;3282;48.358;10.958;2022-12-11T12:55:12;20.45;;;11.10;;
6497;SDS011;3282;48.358;10.958;2022-12-11T13:02:56;19.20;;;12.02;;
6497;SDS011;3282;48.358;10.958;2022-12-11T13:05:28;19.98;;;12.38;;
6497;SDS011;3282;48.358;10.958;2022-12-11T13:07:59;20.17;;;11.35;;
6497;SDS011;3282;48.358;10.958;2022-12-11T13:10:34;19.25;;;11.13;;
6497;SDS011;3282;48.358;10.958;2022-12-11T13:13:04;24.17;;;13.20;;
6497;SDS011;3282;48.358;10.958;2022-12-11T13:18:01;20.27;;;12.30;;
6497;SDS011;3282;48.358;10.958;2022-12-11T13:20:31;29.67;;;17.67;;
6497;SDS011;3282;48.358;10.958;2022-12-11T13:25:29;61.65;;;31.40;;
6497;SDS011;3282;48.358;10.958;2022-12-11T13:28:04;23.38;;;13.52;;
6497;SDS011;3282;48.358;10.958;2022-12-11T13:30:54;26.80;;;15.05;;
6497;SDS011;3282;48.358;10.958;2022-12-11T13:33:25;28.60;;;16.10;;
6497;SDS011;3282;48.358;10.958;2022-12-11T13:38:46;20.00;;;12.30;;
6497;SDS011;3282;48.358;10.958;2022-12-11T13:41:16;19.58;;;11.80;;
6497;SDS011;3282;48.358;10.958;2022-12-11T13:43:44;17.80;;;10.45;;
6497;SDS011;3282;48.358;10.958;2022-12-11T13:46:13;19.23;;;10.52;;
6497;SDS011;3282;48.358;10.958;2022-12-11T13:48:46;18.50;;;10.55;;
6497;SDS011;3282;48.358;10.958;2022-12-11T13:51:16;21.50;;;11.75;;
6497;SDS011;3282;48.358;10.958;2022-12-11T13:53:44;18.42;;;10.95;;
6497;SDS011;3282;48.358;10.958;2022-12-11T13:56:17;20.30;;;11.50;;
6497;SDS011;3282;48.358;10.958;2022-12-11T13:58:46;18.33;;;10.80;;
6497;SDS011;3282;48.358;10.958;2022-12-11T14:01:20;20.58;;;11.15;;
6497;SDS011;3282;48.358;10.958;2022-12-11T14:03:52;24.45;;;13.88;;
6497;SDS011;3282;48.358;10.958;2022-12-11T14:06:21;19.73;;;10.93;;
6497;SDS011;3282;48.358;10.958;2022-12-11T14:08:49;21.95;;;12.80;;
6497;SDS011;3282;48.358;10.958;2022-12-11T14:11:22;19.50;;;10.77;;
6497;SDS011;3282;48.358;10.958;2022-12-11T14:13:53;21.00;;;12.55;;
6497;SDS011;3282;48.358;10.958;2022-12-11T14:16:22;21.13;;;11.88;;
6497;SDS011;3282;48.358;10.958;2022-12-11T14:18:52;19.38;;;11.48;;
6497;SDS011;3282;48.358;10.958;2022-12-11T14:21:22;18.58;;;10.55;;
6497;SDS011;3282;48.358;10.958;2022-12-11T14:23:56;20.75;;;10.95;;
6497;SDS011;3282;48.358;10.958;2022-12-11T14:26:26;20.90;;;12.07;;
6497;SDS011;3282;48.358;10.958;2022-12-11T14:28:54;22.98;;;12.98;;
6497;SDS011;3282;48.358;10.958;2022-12-11T14:34:08;23.15;;;13.32;;
6497;SDS011;3282;48.358;10.958;2022-12-11T14:36:41;31.55;;;17.20;;
6497;SDS011;3282;48.358;10.958;2022-12-11T14:39:19;34.65;;;17.80;;
6497;SDS011;3282;48.358;10.958;2022-12-11T14:42:03;77.13;;;40.00;;
6497;SDS011;3282;48.358;10.958;2022-12-11T14:47:21;28.67;;;17.40;;
6497;SDS011;3282;48.358;10.958;2022-12-11T14:49:54;26.27;;;15.80;;
6497;SDS011;3282;48.358;10.958;2022-12-11T14:52:30;22.55;;;13.20;;
6497;SDS011;3282;48.358;10.958;2022-12-11T14:55:04;24.75;;;13.05;;
6497;SDS011;3282;48.358;10.958;2022-12-11T14:57:35;21.90;;;13.13;;
6497;SDS011;3282;48.358;10.958;2022-12-11T15:00:06;27.85;;;16.23;;
6497;SDS011;3282;48.358;10.958;2022-12-11T15:02:34;23.48;;;13.40;;
6497;SDS011;3282;48.358;10.958;2022-12-11T15:05:11;21.73;;;12.07;;
6497;SDS011;3282;48.358;10.958;2022-12-11T15:10:36;27.33;;;15.30;;
6497;SDS011;3282;48.358;10.958;2022-12-11T15:13:07;25.92;;;15.20;;
6497;SDS011;3282;48.358;10.958;2022-12-11T15:15:37;62.30;;;28.15;;
6497;SDS011;3282;48.358;10.958;2022-12-11T15:18:16;21.25;;;13.57;;
6497;SDS011;3282;48.358;10.958;2022-12-11T15:20:51;29.23;;;15.13;;
6497;SDS011;3282;48.358;10.958;2022-12-11T15:23:20;32.70;;;18.35;;
6497;SDS011;3282;48.358;10.958;2022-12-11T15:25:51;24.67;;;13.27;;
6497;SDS011;3282;48.358;10.958;2022-12-11T15:28:33;25.17;;;14.30;;
6497;SDS011;3282;48.358;10.958;2022-12-11T15:31:03;21.83;;;12.27;;
6497;SDS011;3282;48.358;10.958;2022-12-11T15:33:31;23.77;;;13.75;;
6497;SDS011;3282;48.358;10.958;2022-12-11T15:36:05;23.60;;;13.43;;
6497;SDS011;3282;48.358;10.958;2022-12-11T15:38:46;25.10;;;14.38;;
6497;SDS011;3282;48.358;10.958;2022-12-11T15:41:13;25.85;;;14.68;;
6497;SDS011;3282;48.358;10.958;2022-12-11T15:43:42;25.70;;;14.70;;
6497;SDS011;3282;48.358;10.958;2022-12-11T15:46:10;23.77;;;14.15;;
6497;SDS011;3282;48.358;10.958;2022-12-11T15:48:36;25.25;;;14.32;;
6497;SDS011;3282;48.358;10.958;2022-12-11T15:51:03;25.65;;;14.35;;
6497;SDS011;3282;48.358;10.958;2022-12-11T15:53:29;26.60;;;14.90;;
6497;SDS011;3282;48.358;10.958;2022-12-11T15:55:56;27.20;;;15.10;;
6497;SDS011;3282;48.358;10.958;2022-12-11T15:58:24;27.00;;;14.93;;
6497;SDS011;3282;48.358;10.958;2022-12-11T16:00:52;28.98;;;15.57;;
6497;SDS011;3282;48.358;10.958;2022-12-11T16:03:20;28.33;;;16.73;;
6497;SDS011;3282;48.358;10.958;2022-12-11T16:05:48;27.25;;;15.95;;
6497;SDS011;3282;48.358;10.958;2022-12-11T16:08:19;27.42;;;14.98;;
6497;SDS011;3282;48.358;10.958;2022-12-11T16:10:47;29.92;;;16.00;;
6497;SDS011;3282;48.358;10.958;2022-12-11T16:13:16;32.10;;;18.08;;
6497;SDS011;3282;48.358;10.958;2022-12-11T16:15:43;27.10;;;14.32;;
6497;SDS011;3282;48.358;10.958;2022-12-11T16:18:14;26.10;;;15.05;;